»·PEaware :: N4693K KTEX-KASE

N4693K :: KTEX-KASE

FLIGHT INFORMATION

Flight Status: Arrived
Operator: Privately registered:
United States
More flights under this callsign
Pilot: Ian G. (41107)
Aircraft: CIRRUS SR-22 TURBO
(S22T)
More flights by this aircraft type
Origin: KTEX Telluride Regl
United States
Destination: KASE Aspen-Pitkin Co/Sardy
United States
More flights between these airports :: More routes between these airports
Route: ETL V68 MTJ V361 DBL
File this flight plan on PilotEdge
Remarks:
Altitude:
(Current/Filed)
21,000ft
Speed:
(Current/Filed)
201kts
Departed: 01-Jun-23 11:34 AM
Arrived: 01-Jun-23 12:21 PM
Distance/Time
Traveled:
90nm/0:47
Distance/Time
To Go:
Arrived

Flight Plot

Page will automatically refresh every two minutes.


Map Options




Map Legend


Flown Route
Filed Route
Departure Airport
Arrival Airport
Navaid (VOR, NDB)
Fix

Horizontal Profiles

Position Reports

Time Latitude Longitude Heading Altitude Ground
Speed
01-Jun-23 11:28 37.955323 -107.902201 107 9065ft 0kts
01-Jun-23 11:29 37.955323 -107.902201 107 9065ft 0kts
01-Jun-23 11:30 37.953991 -107.902558 193 9064ft 0kts
01-Jun-23 11:31 37.953512 -107.901959 110 9064ft 8kts
01-Jun-23 11:32 37.953340 -107.901426 114 9064ft 0kts
01-Jun-23 11:33 37.952922 -107.901275 191 9063ft 7kts
01-Jun-23 11:34 37.955825 -107.918587 284 9087ft 107kts
01-Jun-23 11:35 37.963714 -107.959564 281 9953ft 130kts
01-Jun-23 11:36 37.976856 -108.004813 290 11076ft 137kts
01-Jun-23 11:37 37.989235 -108.051639 284 12284ft 142kts
01-Jun-23 11:38 38.001221 -108.100134 285 13430ft 147kts
01-Jun-23 11:39 38.013675 -108.150616 284 14519ft 153kts
01-Jun-23 11:40 38.026594 -108.203068 283 15586ft 158kts
01-Jun-23 11:41 38.054360 -108.242221 1 16615ft 168kts
01-Jun-23 11:42 38.095378 -108.216497 35 17625ft 167kts
01-Jun-23 11:43 38.135567 -108.185659 35 18646ft 170kts
01-Jun-23 11:44 38.176356 -108.154278 36 19537ft 172kts
01-Jun-23 11:45 38.217535 -108.122653 36 20406ft 174kts
01-Jun-23 11:46 38.260050 -108.089833 37 21011ft 193kts
01-Jun-23 11:47 38.308142 -108.052758 35 21017ft 206kts
01-Jun-23 11:48 38.358209 -108.014097 36 21035ft 216kts
01-Jun-23 11:48 38.401575 -107.980590 35 21051ft 219kts
01-Jun-23 11:50 38.462517 -107.933357 35 21065ft 222kts
01-Jun-23 11:51 38.516259 -107.893299 28 21062ft 224kts
01-Jun-23 11:52 38.572304 -107.860111 28 21058ft 222kts
01-Jun-23 11:53 38.622108 -107.830453 28 21040ft 221kts
01-Jun-23 11:53 38.669314 -107.802282 28 20999ft 222kts
01-Jun-23 11:54 38.722589 -107.764102 48 20956ft 217kts
01-Jun-23 11:55 38.766801 -107.711229 47 20918ft 218kts
01-Jun-23 11:57 38.818746 -107.648976 46 20878ft 220kts
01-Jun-23 11:58 38.863409 -107.595298 46 20852ft 221kts
01-Jun-23 11:58 38.900684 -107.550462 46 20844ft 219kts
01-Jun-23 11:59 38.944902 -107.497168 47 20807ft 219kts
01-Jun-23 12:00 38.989110 -107.443792 46 19769ft 219kts
01-Jun-23 12:01 39.033821 -107.389712 46 18602ft 221kts
01-Jun-23 12:03 39.086052 -107.326418 45 17140ft 219kts
01-Jun-23 12:03 39.121736 -107.283175 45 16768ft 202kts
01-Jun-23 12:04 39.163166 -107.233423 36 16814ft 204kts
01-Jun-23 12:05 39.217950 -107.217144 9 16827ft 203kts
01-Jun-23 12:06 39.273935 -107.205472 9 16827ft 204kts
01-Jun-23 12:07 39.330507 -107.193228 9 16195ft 210kts
01-Jun-23 12:08 39.388262 -107.179933 9 15197ft 210kts
01-Jun-23 12:09 39.445227 -107.166060 8 14262ft 206kts
01-Jun-23 12:10 39.498853 -107.151864 8 13837ft 179kts
01-Jun-23 12:11 39.522646 -107.111275 95 13884ft 167kts
01-Jun-23 12:12 39.514641 -107.051209 104 13923ft 171kts
01-Jun-23 12:13 39.494117 -106.998837 156 13636ft 178kts
01-Jun-23 12:14 39.447529 -106.976113 164 13286ft 173kts
01-Jun-23 12:15 39.402791 -106.954703 162 13118ft 177kts
01-Jun-23 12:16 39.353987 -106.931290 161 12321ft 192kts
01-Jun-23 12:17 39.306690 -106.908592 161 11035ft 159kts
01-Jun-23 12:18 39.269169 -106.889909 164 9155ft 132kts
01-Jun-23 12:19 39.236032 -106.874883 168 7800ft 112kts
01-Jun-23 12:20 39.223260 -106.867210 122 7756ft 9kts

Navigation Log

Ident Type
Flight plan parsing failed, navigation log unavailable